Willshire, Ohio
Current Conditions -  °F | °C
As of 1:54 AM on Sunday 23 Nov 2014 (Local Time) from KFWA Reporting Station
Light Rain Light Rain  
Wind Chill: 39°   Ceiling: 8000
Heat Index: 46°   Visibility: 6mi
Dew Point: 42°   Wind: 18mph
Humidity: 86%   Direction: 210°SSW
Pressure: 29.97"   Gusts: NA
Location:  40.75°N, 84.79°W
Report Text: KFWA 230654Z 21016KT 6SM -RA BR OVC080 08/06 A2997 RMK AO2 SLP151 P0006 T00780056
Loading
Personal Weather Stations






























Interactive Weather Map New forecast layout! Learn more

10-Day Weather Forecast

Advertisements
Track Severe Weather on mobile